Time;durP1;ratioP1;P1;durP2;ratioP2;P2;SDS_P1;SDS_P2;PMS_P1;PMS_P2;Temp;Humidity;BMP_temperature;BMP_pressure;BME280_temperature;BME280_humidity;BME280_pressure;Samples;Min_cycle;Max_cycle;Signal;HPM_P1;HPM_P2
2022/12/29 00:01:06;;;;;;;;;;;18.80;63.10;;;;;;4971102;28;1713;-69
2022/12/29 00:03:32;;;;;;;;;;;18.80;63.20;;;;;;4971306;28;1367;-69
2022/12/29 00:05:58;;;;;;;;;;;18.80;63.20;;;;;;4970176;28;943;-69
2022/12/29 00:08:39;;;;;;;;;;;18.80;63.20;;;;;;4973604;28;887;-69
2022/12/29 00:11:08;;;;;;;;;;;18.80;63.10;;;;;;4975072;28;1312;-69
2022/12/29 00:16:17;;;;;;;;;;;18.80;63.20;;;;;;4974819;28;777;-69
2022/12/29 00:18:43;;;;;;;;;;;18.80;63.20;;;;;;4974442;28;1910;-69
2022/12/29 00:35:09;;;;;;;;;;;18.80;63.30;;;;;;4974861;28;780;-69
2022/12/29 00:45:50;;;;;;;;;;;18.70;63.20;;;;;;4974966;28;767;-69
2022/12/29 00:49:29;;;;;;;;;;;18.70;63.30;;;;;;4974485;28;808;-69
2022/12/29 00:51:04;;;;;;;;;;;18.70;63.30;;;;;;4974017;28;1352;-69
2022/12/29 00:53:29;;;;;;;;;;;18.70;63.30;;;;;;4974389;28;985;-69
2022/12/29 00:55:55;;;;;;;;;;;18.70;63.30;;;;;;4974595;28;1053;-69
2022/12/29 00:58:20;;;;;;;;;;;18.70;63.30;;;;;;4974179;28;1903;-69
2022/12/29 01:00:46;;;;;;;;;;;18.70;63.30;;;;;;4974113;28;1351;-69
2022/12/29 01:03:11;;;;;;;;;;;18.70;63.30;;;;;;4972857;28;1311;-69
2022/12/29 01:05:37;;;;;;;;;;;18.70;63.30;;;;;;4973534;28;845;-69
2022/12/29 01:08:02;;;;;;;;;;;18.70;63.30;;;;;;4973018;28;864;-69
2022/12/29 01:10:30;;;;;;;;;;;18.70;63.30;;;;;;4974083;28;1377;-69
2022/12/29 01:12:56;;;;;;;;;;;18.70;63.30;;;;;;4974177;28;891;-69
2022/12/29 01:15:21;;;;;;;;;;;18.70;63.30;;;;;;4974161;28;1081;-69
2022/12/29 01:17:47;;;;;;;;;;;18.70;63.30;;;;;;4973966;28;843;-69
2022/12/29 01:20:12;;;;;;;;;;;18.70;63.30;;;;;;4973465;28;1910;-69
2022/12/29 01:22:38;;;;;;;;;;;18.70;63.30;;;;;;4973094;28;1003;-69
2022/12/29 01:25:04;;;;;;;;;;;18.70;63.30;;;;;;4973966;28;908;-69
2022/12/29 01:27:29;;;;;;;;;;;18.70;63.30;;;;;;4973963;28;836;-69
2022/12/29 01:29:54;;;;;;;;;;;18.70;63.30;;;;;;4976351;28;1275;-69
2022/12/29 01:32:20;;;;;;;;;;;18.70;63.30;;;;;;4973759;28;835;-69
2022/12/29 01:34:45;;;;;;;;;;;18.70;63.40;;;;;;4973604;28;812;-69
2022/12/29 01:37:11;;;;;;;;;;;18.70;63.40;;;;;;4973731;28;815;-69
2022/12/29 01:39:36;;;;;;;;;;;18.70;63.40;;;;;;4972120;28;1906;-69
2022/12/29 01:42:02;;;;;;;;;;;18.60;63.30;;;;;;4973653;28;1237;-69
2022/12/29 01:44:46;;;;;;;;;;;18.70;63.40;;;;;;4973576;28;1070;-69
2022/12/29 01:47:19;;;;;;;;;;;18.70;63.40;;;;;;4973372;28;868;-69
2022/12/29 01:49:45;;;;;;;;;;;18.60;63.30;;;;;;4971323;28;824;-69
2022/12/29 01:52:10;;;;;;;;;;;18.60;63.30;;;;;;4972184;28;1311;-69
2022/12/29 01:54:43;;;;;;;;;;;18.60;63.30;;;;;;4972320;28;860;-69
2022/12/29 01:57:10;;;;;;;;;;;18.60;63.40;;;;;;4972959;28;825;-69
2022/12/29 01:59:37;;;;;;;;;;;18.60;63.40;;;;;;4971704;28;1961;-69
2022/12/29 02:02:02;;;;;;;;;;;18.60;63.40;;;;;;4973223;28;1253;-69
2022/12/29 02:04:29;;;;;;;;;;;18.60;63.40;;;;;;4973239;28;1257;-69
2022/12/29 02:07:01;;;;;;;;;;;18.60;63.40;;;;;;4972053;28;797;-69
2022/12/29 02:09:27;;;;;;;;;;;18.60;63.40;;;;;;4971817;28;1019;-69
2022/12/29 02:11:52;;;;;;;;;;;18.60;63.40;;;;;;4973553;28;1374;-69
2022/12/29 02:14:17;;;;;;;;;;;18.60;63.40;;;;;;4972509;28;960;-69
2022/12/29 02:16:58;;;;;;;;;;;18.60;63.40;;;;;;4973153;28;1260;-69
2022/12/29 02:19:23;;;;;;;;;;;18.60;63.40;;;;;;4972505;28;1974;-69
2022/12/29 02:22:03;;;;;;;;;;;18.60;63.40;;;;;;4973110;28;1335;-69
2022/12/29 02:24:47;;;;;;;;;;;18.60;63.40;;;;;;4971503;28;791;-69
2022/12/29 02:27:19;;;;;;;;;;;18.60;63.40;;;;;;4972773;28;929;-69
2022/12/29 02:29:50;;;;;;;;;;;18.60;63.40;;;;;;4972044;28;817;-69
2022/12/29 02:32:15;;;;;;;;;;;18.60;63.40;;;;;;4972394;28;869;-69
2022/12/29 02:34:41;;;;;;;;;;;18.60;63.50;;;;;;4971706;28;821;-69
2022/12/29 02:37:09;;;;;;;;;;;18.60;63.50;;;;;;4971370;28;1193;-69
2022/12/29 02:39:38;;;;;;;;;;;18.60;63.50;;;;;;4970692;28;1930;-69
2022/12/29 02:42:05;;;;;;;;;;;18.60;63.50;;;;;;4969655;28;1455;-69
2022/12/29 02:44:34;;;;;;;;;;;18.60;63.50;;;;;;4971666;28;1026;-69
2022/12/29 02:47:03;;;;;;;;;;;18.60;63.50;;;;;;4970639;28;862;-69
2022/12/29 02:49:47;;;;;;;;;;;18.60;63.50;;;;;;4970656;28;826;-69
2022/12/29 02:52:16;;;;;;;;;;;18.60;63.50;;;;;;4971556;28;959;-69
2022/12/29 02:54:42;;;;;;;;;;;18.60;63.60;;;;;;4970442;28;821;-69
2022/12/29 02:57:09;;;;;;;;;;;18.60;63.50;;;;;;4971902;28;819;-69
2022/12/29 02:59:34;;;;;;;;;;;18.60;63.50;;;;;;4970202;28;1954;-69
2022/12/29 03:02:19;;;;;;;;;;;18.60;63.50;;;;;;4970666;28;1296;-69
2022/12/29 03:05:04;;;;;;;;;;;18.60;63.50;;;;;;4972064;28;900;-69
2022/12/29 03:07:32;;;;;;;;;;;18.60;63.50;;;;;;4971631;28;944;-69
2022/12/29 03:10:04;;;;;;;;;;;18.60;63.60;;;;;;4970339;28;1260;-69
2022/12/29 03:18:16;;;;;;;;;;;18.60;63.50;;;;;;4970622;28;975;-69
2022/12/29 03:20:43;;;;;;;;;;;18.60;63.50;;;;;;4970270;28;1906;-68
2022/12/29 03:23:08;;;;;;;;;;;18.60;63.50;;;;;;4953295;28;1139;-69
2022/12/29 03:25:35;;;;;;;;;;;18.60;63.50;;;;;;4970768;28;821;-69
2022/12/29 03:28:01;;;;;;;;;;;18.60;63.50;;;;;;4970576;28;821;-69
2022/12/29 03:30:27;;;;;;;;;;;18.60;63.50;;;;;;4971427;28;1240;-69
2022/12/29 03:32:57;;;;;;;;;;;18.60;63.50;;;;;;4971807;28;858;-69
2022/12/29 03:35:23;;;;;;;;;;;18.60;63.50;;;;;;4970099;28;796;-69
2022/12/29 03:37:53;;;;;;;;;;;18.60;63.50;;;;;;4969450;28;926;-69
2022/12/29 03:40:18;;;;;;;;;;;18.60;63.50;;;;;;4969792;28;1910;-69
2022/12/29 03:42:44;;;;;;;;;;;18.60;63.50;;;;;;4970427;28;913;-69
2022/12/29 03:45:10;;;;;;;;;;;18.60;63.50;;;;;;4970464;28;892;-69
2022/12/29 03:47:35;;;;;;;;;;;18.60;63.50;;;;;;4954316;28;1336;-68
2022/12/29 03:50:01;;;;;;;;;;;18.60;63.50;;;;;;4970077;28;1309;-69
2022/12/29 03:52:26;;;;;;;;;;;18.60;63.60;;;;;;4971506;28;963;-68
2022/12/29 03:54:52;;;;;;;;;;;18.60;63.50;;;;;;4970381;28;1046;-69
2022/12/29 03:57:17;;;;;;;;;;;18.60;63.50;;;;;;4971461;28;773;-69
2022/12/29 03:59:43;;;;;;;;;;;18.60;63.50;;;;;;4971360;28;1895;-69
2022/12/29 04:02:08;;;;;;;;;;;18.60;64.30;;;;;;4971676;28;1297;-69
2022/12/29 04:04:34;;;;;;;;;;;18.50;63.50;;;;;;4970429;28;1367;-69
2022/12/29 04:06:59;;;;;;;;;;;18.60;63.60;;;;;;4970085;28;888;-68
2022/12/29 04:09:24;;;;;;;;;;;18.50;63.50;;;;;;4985244;28;1355;-69
2022/12/29 04:11:50;;;;;;;;;;;18.50;63.50;;;;;;4971676;28;1261;-68
2022/12/29 04:14:15;;;;;;;;;;;18.60;63.60;;;;;;4971231;28;767;-68
2022/12/29 04:16:41;;;;;;;;;;;18.50;63.50;;;;;;4971587;28;1281;-69
2022/12/29 04:19:07;;;;;;;;;;;18.50;63.50;;;;;;4973165;28;1910;-68
2022/12/29 04:21:32;;;;;;;;;;;18.50;63.50;;;;;;4969904;28;1261;-68
2022/12/29 04:23:58;;;;;;;;;;;18.50;63.50;;;;;;4971166;28;905;-69
2022/12/29 04:26:23;;;;;;;;;;;18.50;63.50;;;;;;4971147;28;856;-69
2022/12/29 04:28:50;;;;;;;;;;;18.50;63.60;;;;;;4971489;28;1141;-69
2022/12/29 04:31:15;;;;;;;;;;;18.50;63.60;;;;;;4970772;28;1326;-69
2022/12/29 04:33:41;;;;;;;;;;;18.50;63.60;;;;;;4970701;28;829;-68
2022/12/29 04:36:06;;;;;;;;;;;18.50;63.60;;;;;;4970934;28;959;-69
2022/12/29 04:38:32;;;;;;;;;;;18.50;63.60;;;;;;4970697;28;1903;-69
2022/12/29 04:41:01;;;;;;;;;;;18.50;63.60;;;;;;4969488;28;1362;-69
2022/12/29 04:43:26;;;;;;;;;;;18.50;63.60;;;;;;4969289;28;960;-68
2022/12/29 04:45:52;;;;;;;;;;;18.50;63.60;;;;;;4969319;28;861;-69
2022/12/29 04:48:17;;;;;;;;;;;18.50;63.60;;;;;;4970906;28;911;-69
2022/12/29 04:50:43;;;;;;;;;;;18.50;63.60;;;;;;4970701;28;1257;-68
2022/12/29 04:53:08;;;;;;;;;;;18.50;63.60;;;;;;4970905;28;883;-68
2022/12/29 04:55:34;;;;;;;;;;;18.50;63.60;;;;;;4974497;28;936;-68
2022/12/29 04:57:59;;;;;;;;;;;18.50;63.70;;;;;;4974508;28;913;-68
2022/12/29 05:00:25;;;;;;;;;;;18.50;63.60;;;;;;4973852;28;1910;-68
2022/12/29 05:02:50;;;;;;;;;;;18.50;63.60;;;;;;4972351;28;950;-68
2022/12/29 05:05:16;;;;;;;;;;;18.50;63.70;;;;;;4973874;28;1291;-68
2022/12/29 05:07:41;;;;;;;;;;;18.50;63.70;;;;;;4973943;28;781;-68
2022/12/29 05:10:07;;;;;;;;;;;18.50;64.40;;;;;;4973512;28;1253;-68
2022/12/29 05:12:32;;;;;;;;;;;18.50;63.60;;;;;;4972806;28;849;-68
2022/12/29 05:14:58;;;;;;;;;;;18.50;63.60;;;;;;4972754;28;892;-68
2022/12/29 05:17:23;;;;;;;;;;;18.50;63.50;;;;;;4972692;28;954;-68
2022/12/29 05:19:49;;;;;;;;;;;18.50;63.50;;;;;;4973320;28;1897;-69
2022/12/29 05:22:14;;;;;;;;;;;18.60;63.50;;;;;;4973050;28;2073;-69
2022/12/29 05:24:40;;;;;;;;;;;18.60;63.40;;;;;;4972389;28;899;-69
2022/12/29 05:27:05;;;;;;;;;;;18.60;63.30;;;;;;4973772;28;951;-69
2022/12/29 05:29:31;;;;;;;;;;;18.60;63.20;;;;;;4972399;28;761;-69
2022/12/29 05:31:56;;;;;;;;;;;18.60;63.20;;;;;;4973612;28;1265;-69
2022/12/29 05:34:22;;;;;;;;;;;18.60;63.10;;;;;;4973709;28;907;-69
2022/12/29 05:36:47;;;;;;;;;;;18.70;63.10;;;;;;4973761;28;912;-69
2022/12/29 05:39:13;;;;;;;;;;;18.70;63.00;;;;;;4988138;28;1910;-69
2022/12/29 05:41:38;;;;;;;;;;;18.70;62.90;;;;;;4973512;28;1355;-69
2022/12/29 05:44:04;;;;;;;;;;;18.70;62.90;;;;;;4972240;28;1101;-69
2022/12/29 05:46:29;;;;;;;;;;;18.70;62.80;;;;;;4961730;28;1215;-69
2022/12/29 05:48:54;;;;;;;;;;;18.70;62.70;;;;;;4971894;28;866;-69
2022/12/29 05:51:20;;;;;;;;;;;18.80;62.80;;;;;;4973271;28;1369;-69
2022/12/29 05:53:45;;;;;;;;;;;18.80;62.70;;;;;;4988023;28;1204;-69
2022/12/29 05:56:11;;;;;;;;;;;18.80;62.60;;;;;;4973414;28;923;-69
2022/12/29 05:58:36;;;;;;;;;;;18.80;62.50;;;;;;4973237;28;1907;-69
2022/12/29 06:01:02;;;;;;;;;;;18.80;62.50;;;;;;4971891;28;1284;-69
2022/12/29 06:03:27;;;;;;;;;;;18.80;62.50;;;;;;4973010;28;1270;-69
2022/12/29 06:05:53;;;;;;;;;;;18.80;62.40;;;;;;4970520;28;952;-69
2022/12/29 06:08:18;;;;;;;;;;;18.80;62.50;;;;;;4973023;28;936;-69
2022/12/29 06:10:44;;;;;;;;;;;18.80;62.40;;;;;;4971394;28;1322;-69
2022/12/29 06:13:09;;;;;;;;;;;18.80;62.30;;;;;;4972947;28;904;-69
2022/12/29 06:15:34;;;;;;;;;;;18.90;62.30;;;;;;4972843;28;1015;-69
2022/12/29 06:18:00;;;;;;;;;;;19.00;62.20;;;;;;4972980;28;1202;-69
2022/12/29 06:20:25;;;;;;;;;;;19.00;62.00;;;;;;4954838;28;1899;-70
2022/12/29 06:22:51;;;;;;;;;;;19.10;62.00;;;;;;4968385;28;1811;-69
2022/12/29 06:25:16;;;;;;;;;;;19.10;61.80;;;;;;4972186;28;1142;-69
2022/12/29 06:27:42;;;;;;;;;;;19.20;61.60;;;;;;4971214;28;1277;-69
2022/12/29 06:30:08;;;;;;;;;;;19.30;61.50;;;;;;4987468;28;1273;-69
2022/12/29 06:32:34;;;;;;;;;;;19.40;61.30;;;;;;4972652;28;869;-69
2022/12/29 06:35:00;;;;;;;;;;;19.50;61.10;;;;;;4971548;28;880;-73
2022/12/29 06:37:25;;;;;;;;;;;19.50;60.90;;;;;;4971368;28;821;-73
2022/12/29 06:39:51;;;;;;;;;;;19.60;60.70;;;;;;4972339;28;1906;-71
2022/12/29 06:42:16;;;;;;;;;;;19.70;60.50;;;;;;4971419;28;872;-71
2022/12/29 06:44:41;;;;;;;;;;;19.70;60.30;;;;;;4955865;28;1426;-73
2022/12/29 06:47:07;;;;;;;;;;;19.80;60.20;;;;;;4972008;28;796;-73
2022/12/29 06:49:32;;;;;;;;;;;19.80;59.90;;;;;;4970651;28;900;-72
2022/12/29 06:52:00;;;;;;;;;;;19.90;59.90;;;;;;4971728;28;1336;-73
2022/12/29 06:54:26;;;;;;;;;;;20.00;59.70;;;;;;4972093;28;828;-72
2022/12/29 06:56:51;;;;;;;;;;;20.00;59.60;;;;;;4972074;28;986;-73
2022/12/29 06:59:16;;;;;;;;;;;20.10;59.50;;;;;;4970577;28;1965;-69
2022/12/29 07:01:42;;;;;;;;;;;20.10;59.40;;;;;;4971926;28;1290;-72
2022/12/29 07:04:07;;;;;;;;;;;20.20;59.30;;;;;;4972064;28;928;-69
2022/12/29 07:06:33;;;;;;;;;;;20.20;59.20;;;;;;4971800;28;1006;-72
2022/12/29 07:08:58;;;;;;;;;;;20.30;59.10;;;;;;4970478;28;841;-72
2022/12/29 07:11:24;;;;;;;;;;;20.30;59.00;;;;;;4970931;28;1347;-69
2022/12/29 07:13:49;;;;;;;;;;;20.40;59.00;;;;;;4971383;28;816;-67
2022/12/29 07:16:15;;;;;;;;;;;20.40;58.90;;;;;;4970068;28;885;-67
2022/12/29 07:18:40;;;;;;;;;;;20.40;58.60;;;;;;4972505;28;1910;-69
2022/12/29 07:21:06;;;;;;;;;;;20.40;57.40;;;;;;4971468;28;1293;-69
2022/12/29 07:23:31;;;;;;;;;;;20.30;56.90;;;;;;4971784;28;869;-69
2022/12/29 07:26:00;;;;;;;;;;;20.30;57.00;;;;;;4972060;28;1381;-69
2022/12/29 07:28:25;;;;;;;;;;;20.40;57.40;;;;;;4971244;28;873;-69
2022/12/29 07:30:51;;;;;;;;;;;20.40;57.50;;;;;;4971477;28;1263;-70
2022/12/29 07:33:16;;;;;;;;;;;20.40;57.60;;;;;;4972005;28;846;-69
2022/12/29 07:35:42;;;;;;;;;;;20.40;57.60;;;;;;4971981;28;1080;-69
2022/12/29 07:38:07;;;;;;;;;;;20.40;57.70;;;;;;4971639;28;1192;-71
2022/12/29 07:40:33;;;;;;;;;;;20.40;57.80;;;;;;4970209;28;1906;-70
2022/12/29 07:42:58;;;;;;;;;;;20.40;57.90;;;;;;4972523;28;1019;-71
2022/12/29 07:45:23;;;;;;;;;;;20.40;57.90;;;;;;4971480;28;834;-70
2022/12/29 07:47:49;;;;;;;;;;;20.40;58.00;;;;;;4971970;28;801;-70
2022/12/29 07:50:15;;;;;;;;;;;20.40;58.00;;;;;;4972137;28;1278;-69
2022/12/29 07:52:40;;;;;;;;;;;20.40;58.00;;;;;;4971263;28;920;-69
2022/12/29 07:55:06;;;;;;;;;;;20.40;58.10;;;;;;4972053;28;868;-69
2022/12/29 07:57:31;;;;;;;;;;;20.40;58.10;;;;;;4972348;28;868;-69
2022/12/29 07:59:57;;;;;;;;;;;20.40;58.20;;;;;;4971972;28;1902;-69
2022/12/29 08:02:22;;;;;;;;;;;20.40;58.20;;;;;;4966478;28;1146;-69
2022/12/29 08:04:48;;;;;;;;;;;20.40;58.20;;;;;;4972414;28;934;-69
2022/12/29 08:07:13;;;;;;;;;;;20.40;58.20;;;;;;4971988;28;1010;-69
2022/12/29 08:09:39;;;;;;;;;;;20.40;58.20;;;;;;4971064;28;1397;-69
2022/12/29 08:12:04;;;;;;;;;;;20.50;58.70;;;;;;4971660;28;1289;-69
2022/12/29 08:14:30;;;;;;;;;;;20.50;58.90;;;;;;4970171;28;1666;-69
2022/12/29 08:16:55;;;;;;;;;;;20.50;58.90;;;;;;4969255;28;1346;-69
2022/12/29 08:19:20;;;;;;;;;;;20.50;59.00;;;;;;4971816;28;1922;-69
2022/12/29 08:21:46;;;;;;;;;;;20.50;59.10;;;;;;4971976;28;1400;-69
2022/12/29 08:24:12;;;;;;;;;;;20.50;59.10;;;;;;4970741;28;1384;-69
2022/12/29 08:26:37;;;;;;;;;;;20.50;59.20;;;;;;4969948;28;871;-69
2022/12/29 08:29:08;;;;;;;;;;;20.50;59.40;;;;;;4973603;28;1082;-69
2022/12/29 08:31:34;;;;;;;;;;;20.50;59.40;;;;;;4973353;28;1262;-70
2022/12/29 08:33:59;;;;;;;;;;;20.50;59.50;;;;;;4973247;28;1305;-69
2022/12/29 08:36:25;;;;;;;;;;;20.50;59.60;;;;;;4973711;28;805;-70
2022/12/29 08:38:50;;;;;;;;;;;20.50;59.70;;;;;;4972567;28;1911;-69
2022/12/29 08:41:16;;;;;;;;;;;20.40;59.80;;;;;;4974353;28;1299;-69
2022/12/29 08:43:44;;;;;;;;;;;20.40;59.90;;;;;;4974382;28;849;-69
2022/12/29 08:46:10;;;;;;;;;;;20.40;60.00;;;;;;4973047;28;812;-69
2022/12/29 08:48:35;;;;;;;;;;;20.40;60.20;;;;;;4974545;28;962;-69
2022/12/29 08:51:01;;;;;;;;;;;20.40;60.40;;;;;;4973824;28;1249;-70
2022/12/29 08:53:26;;;;;;;;;;;20.40;60.60;;;;;;4974054;28;922;-69
2022/12/29 08:55:56;;;;;;;;;;;20.40;60.70;;;;;;4974061;28;880;-69
2022/12/29 08:58:21;;;;;;;;;;;20.40;60.80;;;;;;4974017;28;1010;-70
2022/12/29 09:00:47;;;;;;;;;;;20.40;61.00;;;;;;4973575;28;1894;-69
2022/12/29 09:03:12;;;;;;;;;;;20.40;61.10;;;;;;4974141;28;1282;-69
2022/12/29 09:05:38;;;;;;;;;;;20.40;61.20;;;;;;4974098;28;892;-69
2022/12/29 09:08:04;;;;;;;;;;;20.30;61.50;;;;;;4972793;28;832;-72
2022/12/29 09:10:29;;;;;;;;;;;20.30;61.40;;;;;;4973677;28;1287;-70
2022/12/29 09:12:55;;;;;;;;;;;20.30;61.60;;;;;;4974090;28;912;-69
2022/12/29 09:15:20;;;;;;;;;;;20.30;61.70;;;;;;4973762;28;877;-70
2022/12/29 09:17:46;;;;;;;;;;;20.30;61.70;;;;;;4974006;28;1342;-69
2022/12/29 09:20:12;;;;;;;;;;;20.30;61.80;;;;;;4973389;28;1966;-70
2022/12/29 09:22:37;;;;;;;;;;;20.30;61.90;;;;;;4972727;28;812;-70
2022/12/29 09:25:03;;;;;;;;;;;20.30;61.90;;;;;;4972442;28;972;-69
2022/12/29 09:27:29;;;;;;;;;;;20.30;62.10;;;;;;4974299;28;880;-69
2022/12/29 09:29:55;;;;;;;;;;;20.20;62.20;;;;;;4973642;28;1324;-69
2022/12/29 09:32:20;;;;;;;;;;;20.20;62.20;;;;;;4972659;28;836;-69
2022/12/29 09:34:46;;;;;;;;;;;20.20;62.20;;;;;;4974081;28;890;-69
2022/12/29 09:37:11;;;;;;;;;;;20.20;62.20;;;;;;4973526;28;1109;-69
2022/12/29 09:39:37;;;;;;;;;;;20.20;62.30;;;;;;4972992;28;1891;-69
2022/12/29 09:42:08;;;;;;;;;;;20.20;62.30;;;;;;4973528;28;1265;-69
2022/12/29 09:44:34;;;;;;;;;;;20.20;62.40;;;;;;4973483;28;866;-70
2022/12/29 09:47:00;;;;;;;;;;;20.20;62.70;;;;;;4972059;28;829;-70
2022/12/29 09:49:26;;;;;;;;;;;20.10;62.60;;;;;;4971931;28;828;-69
2022/12/29 09:51:52;;;;;;;;;;;20.10;62.60;;;;;;4972953;28;1256;-70
2022/12/29 09:54:20;;;;;;;;;;;20.10;62.70;;;;;;4972225;28;836;-70
2022/12/29 09:56:46;;;;;;;;;;;20.10;62.80;;;;;;4973093;28;824;-69
2022/12/29 09:59:19;;;;;;;;;;;20.10;62.80;;;;;;4975744;28;2317;-69
2022/12/29 10:01:51;;;;;;;;;;;20.00;62.80;;;;;;4971993;28;1327;-69
2022/12/29 10:04:16;;;;;;;;;;;20.00;63.30;;;;;;4972892;28;1261;-70
2022/12/29 10:06:53;;;;;;;;;;;20.00;63.30;;;;;;4959749;28;4427;-71
2022/12/29 10:09:38;;;;;;;;;;;20.00;63.10;;;;;;4956230;28;4201;-70
2022/12/29 10:12:22;;;;;;;;;;;20.10;63.20;;;;;;4950963;28;4261;-69
2022/12/29 10:14:47;;;;;;;;;;;20.10;63.40;;;;;;4959723;28;4628;-69
2022/12/29 10:17:18;;;;;;;;;;;20.00;63.30;;;;;;4951254;28;4727;-70
2022/12/29 10:19:51;;;;;;;;;;;20.00;63.40;;;;;;4951490;28;4345;-68
2022/12/29 10:22:40;;;;;;;;;;;20.00;63.40;;;;;;4950704;28;3997;-69
2022/12/29 10:25:11;;;;;;;;;;;20.00;63.40;;;;;;4933795;28;3652;-69
2022/12/29 10:27:36;;;;;;;;;;;20.00;63.50;;;;;;4971385;28;888;-69
2022/12/29 10:30:02;;;;;;;;;;;20.00;63.50;;;;;;4972266;28;1273;-69
2022/12/29 10:32:38;;;;;;;;;;;20.00;63.60;;;;;;4971488;28;1469;-70
2022/12/29 10:35:11;;;;;;;;;;;19.90;63.60;;;;;;4971118;28;964;-69
2022/12/29 10:37:44;;;;;;;;;;;19.90;63.70;;;;;;4972163;28;819;-68
2022/12/29 10:40:30;;;;;;;;;;;20.00;63.80;;;;;;4970632;28;1898;-68
2022/12/29 10:42:56;;;;;;;;;;;20.00;63.80;;;;;;4963734;28;2207;-70
2022/12/29 10:45:22;;;;;;;;;;;19.90;63.80;;;;;;4970897;28;1352;-70
2022/12/29 10:47:54;;;;;;;;;;;19.90;63.80;;;;;;4967376;28;2522;-69
2022/12/29 10:50:19;;;;;;;;;;;19.90;63.90;;;;;;4968656;28;2212;-69
2022/12/29 10:52:45;;;;;;;;;;;19.90;64.10;;;;;;4970794;28;1266;-69
2022/12/29 10:55:27;;;;;;;;;;;19.90;64.20;;;;;;4970619;28;1400;-70
2022/12/29 10:57:53;;;;;;;;;;;19.90;64.30;;;;;;4969390;28;2264;-69
2022/12/29 11:00:20;;;;;;;;;;;19.90;64.30;;;;;;4971589;28;1989;-70
2022/12/29 11:02:45;;;;;;;;;;;19.90;64.40;;;;;;4970782;28;860;-69
2022/12/29 11:05:26;;;;;;;;;;;19.80;64.30;;;;;;4972180;28;1315;-70
2022/12/29 11:07:53;;;;;;;;;;;19.80;64.40;;;;;;4970597;28;908;-70
2022/12/29 11:10:38;;;;;;;;;;;19.80;64.40;;;;;;4970331;28;1304;-70
2022/12/29 11:13:14;;;;;;;;;;;19.80;64.60;;;;;;4970947;28;915;-70
2022/12/29 11:15:40;;;;;;;;;;;19.80;64.70;;;;;;4970756;28;915;-70
2022/12/29 11:18:07;;;;;;;;;;;19.80;64.80;;;;;;4972736;28;1337;-70
2022/12/29 11:20:37;;;;;;;;;;;19.80;64.50;;;;;;4970275;28;1975;-70
2022/12/29 11:23:03;;;;;;;;;;;19.80;64.50;;;;;;4972260;28;820;-70
2022/12/29 11:25:28;;;;;;;;;;;19.90;64.30;;;;;;4971418;28;875;-70
2022/12/29 11:27:59;;;;;;;;;;;19.90;64.20;;;;;;4970526;28;941;-70
2022/12/29 11:30:25;;;;;;;;;;;19.90;64.70;;;;;;4969188;28;1257;-70
2022/12/29 11:32:52;;;;;;;;;;;19.90;64.50;;;;;;4970369;28;824;-70
2022/12/29 11:35:31;;;;;;;;;;;19.90;64.50;;;;;;4954076;28;1386;-72
2022/12/29 11:37:57;;;;;;;;;;;19.90;64.60;;;;;;4972251;28;891;-72
2022/12/29 11:40:22;;;;;;;;;;;19.80;64.50;;;;;;4969951;28;1907;-71
2022/12/29 11:42:48;;;;;;;;;;;19.80;64.50;;;;;;4970394;28;933;-70
2022/12/29 11:45:20;;;;;;;;;;;19.80;64.60;;;;;;4970031;28;860;-70
2022/12/29 11:47:49;;;;;;;;;;;19.80;64.50;;;;;;4969809;28;1170;-71
2022/12/29 11:50:19;;;;;;;;;;;19.80;64.80;;;;;;4970453;28;1277;-70
2022/12/29 11:52:44;;;;;;;;;;;19.80;64.90;;;;;;4969714;28;833;-71
2022/12/29 11:55:21;;;;;;;;;;;19.80;64.90;;;;;;4970142;28;1089;-71
2022/12/29 11:57:47;;;;;;;;;;;19.70;64.90;;;;;;4971055;28;908;-70
2022/12/29 12:00:19;;;;;;;;;;;19.70;65.00;;;;;;4969573;28;1971;-70
2022/12/29 12:02:49;;;;;;;;;;;19.70;65.20;;;;;;4971834;28;897;-70
2022/12/29 12:05:27;;;;;;;;;;;19.70;65.10;;;;;;4973927;28;1398;-70
2022/12/29 12:07:54;;;;;;;;;;;19.70;65.30;;;;;;4955320;28;1308;-71
2022/12/29 12:10:24;;;;;;;;;;;19.70;65.40;;;;;;4973507;28;1815;-70
2022/12/29 12:12:52;;;;;;;;;;;19.70;65.40;;;;;;4973976;28;962;-70
2022/12/29 12:15:19;;;;;;;;;;;19.70;65.40;;;;;;4973352;28;1015;-71
2022/12/29 12:17:45;;;;;;;;;;;19.70;65.40;;;;;;4974021;28;1347;-71
2022/12/29 12:20:18;;;;;;;;;;;19.70;65.30;;;;;;4974620;28;1902;-71
2022/12/29 12:22:49;;;;;;;;;;;19.70;65.40;;;;;;4973172;28;1083;-71
2022/12/29 12:25:15;;;;;;;;;;;19.70;65.30;;;;;;4973125;28;857;-71
2022/12/29 12:27:44;;;;;;;;;;;19.70;65.30;;;;;;4975231;28;1003;-71
2022/12/29 12:30:16;;;;;;;;;;;19.70;65.40;;;;;;4972861;28;1263;-71
2022/12/29 12:32:54;;;;;;;;;;;19.70;65.50;;;;;;4974508;28;1324;-72
2022/12/29 12:35:29;;;;;;;;;;;19.60;65.40;;;;;;4975339;28;877;-71
2022/12/29 12:38:10;;;;;;;;;;;19.60;65.50;;;;;;4971774;28;1228;-72
2022/12/29 12:40:38;;;;;;;;;;;19.60;65.60;;;;;;4975251;28;2044;-72
2022/12/29 12:43:16;;;;;;;;;;;19.70;66.20;;;;;;4974554;28;1217;-72
2022/12/29 12:45:41;;;;;;;;;;;19.70;66.00;;;;;;4975222;28;1031;-72
2022/12/29 12:48:15;;;;;;;;;;;19.60;66.00;;;;;;4975455;28;1923;-70
2022/12/29 12:50:49;;;;;;;;;;;19.70;66.20;;;;;;4972897;28;1292;-69
2022/12/29 12:53:19;;;;;;;;;;;19.70;66.10;;;;;;4971023;28;1439;-69
2022/12/29 12:55:56;;;;;;;;;;;19.70;66.10;;;;;;4972561;28;1075;-69
2022/12/29 12:58:40;;;;;;;;;;;19.70;66.20;;;;;;4973901;28;904;-69
2022/12/29 13:01:23;;;;;;;;;;;19.60;66.10;;;;;;4971457;28;1890;-70
2022/12/29 13:03:52;;;;;;;;;;;19.60;66.10;;;;;;4972606;28;1328;-70
2022/12/29 13:06:32;;;;;;;;;;;19.60;66.10;;;;;;4974059;28;864;-70
2022/12/29 13:09:10;;;;;;;;;;;19.60;65.50;;;;;;4974116;28;898;-70
2022/12/29 13:11:54;;;;;;;;;;;19.60;66.00;;;;;;4974165;28;1355;-70
2022/12/29 13:14:19;;;;;;;;;;;19.50;65.20;;;;;;4974081;28;861;-70
2022/12/29 13:17:07;;;;;;;;;;;19.50;65.20;;;;;;4974204;28;1244;-69
2022/12/29 13:19:34;;;;;;;;;;;19.50;65.20;;;;;;4971018;28;1911;-70
2022/12/29 13:22:05;;;;;;;;;;;19.40;65.20;;;;;;4988461;28;1312;-69
2022/12/29 13:24:46;;;;;;;;;;;19.40;65.20;;;;;;4950960;28;1245;-70
2022/12/29 13:27:15;;;;;;;;;;;19.40;65.30;;;;;;4974366;28;900;-69
2022/12/29 13:29:49;;;;;;;;;;;19.30;65.20;;;;;;4972281;28;1292;-69
2022/12/29 13:32:30;;;;;;;;;;;19.30;65.20;;;;;;4973490;28;1289;-70
2022/12/29 13:35:06;;;;;;;;;;;19.30;65.20;;;;;;4945822;28;1454;-69
2022/12/29 13:37:33;;;;;;;;;;;19.30;65.20;;;;;;4954080;28;1497;-70
2022/12/29 13:39:59;;;;;;;;;;;19.30;65.20;;;;;;4971704;28;1910;-71
2022/12/29 13:42:25;;;;;;;;;;;19.30;65.20;;;;;;4956005;28;1115;-70
2022/12/29 13:44:55;;;;;;;;;;;19.20;65.10;;;;;;4972195;28;853;-70
2022/12/29 13:47:36;;;;;;;;;;;19.30;65.30;;;;;;4972268;28;1021;-70
2022/12/29 13:50:02;;;;;;;;;;;19.20;65.20;;;;;;4954655;28;1262;-71
2022/12/29 13:52:40;;;;;;;;;;;19.20;65.20;;;;;;4954891;28;1547;-68
2022/12/29 13:55:24;;;;;;;;;;;19.20;65.20;;;;;;4971757;28;1370;-69
2022/12/29 13:57:51;;;;;;;;;;;19.20;65.10;;;;;;4973019;28;864;-69
2022/12/29 14:00:20;;;;;;;;;;;19.20;65.20;;;;;;4971591;28;1906;-70
2022/12/29 14:02:46;;;;;;;;;;;19.20;65.20;;;;;;4972934;28;926;-68
2022/12/29 14:05:17;;;;;;;;;;;19.20;65.20;;;;;;4973432;28;1322;-68
2022/12/29 14:07:43;;;;;;;;;;;19.20;65.20;;;;;;4972098;28;813;-68
2022/12/29 14:10:28;;;;;;;;;;;19.20;65.20;;;;;;4972632;28;1387;-68
2022/12/29 14:12:59;;;;;;;;;;;19.10;65.10;;;;;;4971974;28;1316;-69
2022/12/29 14:15:25;;;;;;;;;;;19.10;65.10;;;;;;4971626;28;975;-68
2022/12/29 14:18:05;;;;;;;;;;;19.10;65.10;;;;;;4972380;28;1290;-68
2022/12/29 14:20:30;;;;;;;;;;;19.10;65.10;;;;;;4971829;28;1898;-69
2022/12/29 14:23:15;;;;;;;;;;;19.10;65.00;;;;;;4971720;28;879;-69
2022/12/29 14:25:55;;;;;;;;;;;19.10;65.00;;;;;;4953951;28;1386;-68
2022/12/29 14:28:22;;;;;;;;;;;19.10;65.00;;;;;;4971407;28;1023;-68
2022/12/29 14:30:52;;;;;;;;;;;19.10;65.00;;;;;;4966064;28;1352;-69
2022/12/29 14:33:17;;;;;;;;;;;19.10;65.00;;;;;;4972319;28;793;-68
2022/12/29 14:35:44;;;;;;;;;;;19.10;65.10;;;;;;4971170;28;853;-69
2022/12/29 14:38:16;;;;;;;;;;;19.00;65.00;;;;;;4971251;28;1280;-69
2022/12/29 14:40:42;;;;;;;;;;;19.00;65.00;;;;;;4970762;28;1961;-69
2022/12/29 14:43:24;;;;;;;;;;;19.00;65.00;;;;;;4971341;28;852;-69
2022/12/29 14:46:00;;;;;;;;;;;19.00;65.00;;;;;;4971260;28;785;-69
2022/12/29 14:48:25;;;;;;;;;;;19.00;65.00;;;;;;4970972;28;875;-68
2022/12/29 14:50:50;;;;;;;;;;;19.00;65.00;;;;;;4971857;28;1266;-67
2022/12/29 14:53:35;;;;;;;;;;;19.00;65.00;;;;;;4972260;28;1023;-69
2022/12/29 14:56:00;;;;;;;;;;;19.00;65.00;;;;;;4972265;28;1156;-68
2022/12/29 14:58:27;;;;;;;;;;;19.00;65.00;;;;;;4970895;28;845;-68
2022/12/29 15:00:52;;;;;;;;;;;19.00;65.00;;;;;;4970481;28;1895;-69
2022/12/29 15:03:24;;;;;;;;;;;19.00;65.00;;;;;;4970835;28;950;-68
2022/12/29 15:05:52;;;;;;;;;;;19.00;65.10;;;;;;4972098;28;910;-67
2022/12/29 15:08:28;;;;;;;;;;;19.00;65.00;;;;;;4971948;28;880;-68
2022/12/29 15:11:13;;;;;;;;;;;18.90;64.90;;;;;;4970218;28;1344;-68
2022/12/29 15:13:39;;;;;;;;;;;18.90;64.90;;;;;;4969466;28;1250;-68